createdAt,value
2017-01-20T00:00:30.474Z,-3.53
2017-01-20T00:01:30.447Z,-3.56
2017-01-20T00:02:30.421Z,-3.54
2017-01-20T00:03:30.402Z,-3.51
2017-01-20T00:04:30.370Z,-3.61
2017-01-20T00:05:30.341Z,-3.57
2017-01-20T00:06:30.316Z,-3.61
2017-01-20T00:07:30.314Z,-3.57
2017-01-20T00:08:30.263Z,-3.57
2017-01-20T00:09:30.236Z,-3.65
2017-01-20T00:10:30.224Z,-3.64
2017-01-20T00:11:30.184Z,-3.62
2017-01-20T00:12:30.166Z,-3.67
2017-01-20T00:13:30.139Z,-3.65
2017-01-20T00:14:30.130Z,-3.61
2017-01-20T00:15:30.093Z,-3.62
2017-01-20T00:16:30.057Z,-3.62
2017-01-20T00:17:30.044Z,-3.54
2017-01-20T00:18:30.035Z,-3.67
2017-01-20T00:19:29.978Z,-3.54
2017-01-20T00:20:29.960Z,-3.62
2017-01-20T00:21:29.928Z,-3.6
2017-01-20T00:22:29.908Z,-3.67
2017-01-20T00:23:29.889Z,-3.62
2017-01-20T00:24:29.863Z,-3.67
2017-01-20T00:25:29.863Z,-3.64
2017-01-20T00:26:29.810Z,-3.65
2017-01-20T00:27:29.798Z,-3.7
2017-01-20T00:28:29.749Z,-3.62
2017-01-20T00:29:29.728Z,-3.71
2017-01-20T00:30:29.695Z,-3.68
2017-01-20T00:31:29.680Z,-3.57
2017-01-20T00:32:29.648Z,-3.65
2017-01-20T00:33:29.645Z,-3.65
2017-01-20T00:34:29.997Z,-3.62
2017-01-20T00:35:29.572Z,-3.7
2017-01-20T00:36:29.546Z,-3.61
2017-01-20T00:37:29.525Z,-3.64
2017-01-20T00:38:29.532Z,-3.65
2017-01-20T00:39:29.463Z,-3.53
2017-01-20T00:40:29.452Z,-3.6
2017-01-20T00:41:29.418Z,-3.61
2017-01-20T00:42:29.786Z,-3.6
2017-01-20T00:43:29.380Z,-3.57
2017-01-20T00:44:29.339Z,-3.57
2017-01-20T00:45:29.315Z,-3.57
2017-01-20T00:46:29.305Z,-3.54
2017-01-20T00:47:29.274Z,-3.6
2017-01-20T00:48:29.251Z,-3.61
2017-01-20T00:49:29.214Z,-3.67
2017-01-20T00:50:29.192Z,-3.64
2017-01-20T00:51:29.159Z,-3.64
2017-01-20T00:52:29.133Z,-3.67
2017-01-20T00:53:29.106Z,-3.65
2017-01-20T00:54:29.084Z,-3.56
2017-01-20T00:55:29.060Z,-3.65
2017-01-20T00:56:29.055Z,-3.61
2017-01-20T00:57:29.009Z,-3.61
2017-01-20T00:58:29.024Z,-3.62
2017-01-20T00:59:28.951Z,-3.76
2017-01-20T01:00:28.923Z,-3.64
2017-01-20T01:01:28.898Z,-3.71
2017-01-20T01:02:28.879Z,-3.84
2017-01-20T01:03:28.852Z,-3.75
2017-01-20T01:04:28.818Z,-3.78
2017-01-20T01:05:28.797Z,-3.81
2017-01-20T01:06:29.168Z,-3.8
2017-01-20T01:07:28.747Z,-3.78
2017-01-20T01:08:28.720Z,-3.8
2017-01-20T01:09:28.696Z,-3.86
2017-01-20T01:10:29.061Z,-3.84
2017-01-20T01:11:28.640Z,-3.83
2017-01-20T01:12:28.614Z,-3.9
2017-01-20T01:13:28.984Z,-3.87
2017-01-20T01:14:28.569Z,-3.86
2017-01-20T01:15:28.537Z,-3.9
2017-01-20T01:16:28.558Z,-3.93
2017-01-20T01:17:28.491Z,-3.89
2017-01-20T01:18:28.461Z,-3.99
2017-01-20T01:19:28.426Z,-4.02
2017-01-20T01:20:28.407Z,-3.96
2017-01-20T01:21:28.435Z,-3.87
2017-01-20T01:22:28.753Z,-3.99
2017-01-20T01:23:28.335Z,-3.99
2017-01-20T01:24:28.298Z,-3.91
2017-01-20T01:25:28.724Z,-3.99
2017-01-20T01:26:28.269Z,-3.93
2017-01-20T01:27:28.224Z,-3.98
2017-01-20T01:28:28.588Z,-3.98
2017-01-20T01:29:28.172Z,-3.94
2017-01-20T01:30:28.150Z,-3.98
2017-01-20T01:31:28.155Z,-4.02
2017-01-20T01:32:28.099Z,-3.96
2017-01-20T01:33:28.077Z,-3.94
2017-01-20T01:34:28.037Z,-3.99
2017-01-20T01:35:28.017Z,-3.93
2017-01-20T01:36:28.007Z,-3.96
2017-01-20T01:37:28.362Z,-3.94
2017-01-20T01:38:27.941Z,-4.01
2017-01-20T01:39:27.929Z,-3.98
2017-01-20T01:40:27.883Z,-3.93
2017-01-20T01:41:27.860Z,-3.96
2017-01-20T01:42:27.839Z,-3.94
2017-01-20T01:43:27.813Z,-3.98
2017-01-20T01:44:27.783Z,-3.94
2017-01-20T01:45:27.761Z,-3.91
2017-01-20T01:46:27.730Z,-4.04
2017-01-20T01:47:27.707Z,-3.98
2017-01-20T01:48:27.886Z,-3.94
2017-01-20T01:49:27.645Z,-3.93
2017-01-20T01:50:27.633Z,-3.94
2017-01-20T01:51:27.625Z,-3.94
2017-01-20T01:52:27.582Z,-3.87
2017-01-20T01:53:27.550Z,-3.96
2017-01-20T01:54:27.519Z,-3.94
2017-01-20T01:55:27.542Z,-3.96
2017-01-20T01:56:27.473Z,-3.87
2017-01-20T01:57:27.445Z,-3.91
2017-01-20T01:58:27.418Z,-3.96
2017-01-20T01:59:27.397Z,-3.93
2017-01-20T02:00:27.389Z,-3.86
2017-01-20T02:01:27.345Z,-3.94
2017-01-20T02:02:27.319Z,-3.9
2017-01-20T02:03:27.292Z,-3.96
2017-01-20T02:04:27.258Z,-3.86
2017-01-20T02:05:27.247Z,-3.86
2017-01-20T02:06:27.214Z,-3.89
2017-01-20T02:07:27.183Z,-3.89
2017-01-20T02:08:27.170Z,-3.78
2017-01-20T02:09:27.131Z,-3.84
2017-01-20T02:10:27.106Z,-3.75
2017-01-20T02:11:27.075Z,-3.7
2017-01-20T02:12:27.079Z,-3.81
2017-01-20T02:13:27.032Z,-3.67
2017-01-20T02:14:27.001Z,-3.71
2017-01-20T02:15:26.976Z,-3.68
2017-01-20T02:16:26.951Z,-3.76
2017-01-20T02:17:26.948Z,-3.67
2017-01-20T02:18:26.894Z,-3.71
2017-01-20T02:19:26.867Z,-3.67
2017-01-20T02:20:26.844Z,-3.86
2017-01-20T02:21:26.821Z,-3.84
2017-01-20T02:22:26.791Z,-3.71
2017-01-20T02:23:26.765Z,-3.72
2017-01-20T02:24:26.738Z,-3.68
2017-01-20T02:25:26.720Z,-3.72
2017-01-20T02:26:26.687Z,-3.68
2017-01-20T02:27:26.661Z,-3.72
2017-01-20T02:28:26.634Z,-3.76
2017-01-20T02:29:26.615Z,-3.78
2017-01-20T02:30:26.587Z,-3.87
2017-01-20T02:31:26.554Z,-3.87
2017-01-20T02:32:26.538Z,-3.9
2017-01-20T02:33:26.539Z,-4.02
2017-01-20T02:34:26.488Z,-3.9
2017-01-20T02:35:26.455Z,-3.93
2017-01-20T02:36:26.425Z,-3.91
2017-01-20T02:37:27.135Z,-3.96
2017-01-20T02:38:26.379Z,-3.94
2017-01-20T02:39:26.350Z,-3.93
2017-01-20T02:40:26.323Z,-3.89
2017-01-20T02:41:26.290Z,-3.91
2017-01-20T02:42:26.266Z,-3.98
2017-01-20T02:43:26.245Z,-4.02
2017-01-20T02:44:26.216Z,-4.04
2017-01-20T02:45:26.186Z,-4.04
2017-01-20T02:46:26.163Z,-4.01
2017-01-20T02:47:26.133Z,-3.94
2017-01-20T02:48:26.105Z,-4.04
2017-01-20T02:49:26.083Z,-4.09
2017-01-20T02:50:26.062Z,-4.05
2017-01-20T02:51:26.033Z,-4.04
2017-01-20T02:52:26.004Z,-4.04
2017-01-20T02:53:25.974Z,-4.07
2017-01-20T02:54:25.960Z,-3.94
2017-01-20T02:55:25.933Z,-3.98
2017-01-20T02:56:25.899Z,-3.98
2017-01-20T02:57:25.870Z,-4.01
2017-01-20T02:58:25.844Z,-3.96
2017-01-20T02:59:25.827Z,-3.99
2017-01-20T03:00:25.800Z,-4.02
2017-01-20T03:01:25.764Z,-4.02
2017-01-20T03:02:25.741Z,-4.01
2017-01-20T03:03:25.710Z,-3.93
2017-01-20T03:04:26.079Z,-3.93
2017-01-20T03:05:25.713Z,-3.9
2017-01-20T03:06:25.629Z,-3.99
2017-01-20T03:07:25.600Z,-3.9
2017-01-20T03:08:25.981Z,-3.93
2017-01-20T03:09:25.551Z,-3.98
2017-01-20T03:10:25.527Z,-4.01
2017-01-20T03:11:25.498Z,-4.02
2017-01-20T03:12:25.472Z,-3.94
2017-01-20T03:13:25.444Z,-3.93
2017-01-20T03:14:25.421Z,-3.87
2017-01-20T03:15:25.445Z,-4.01
2017-01-20T03:16:25.368Z,-3.94
2017-01-20T03:17:25.341Z,-3.9
2017-01-20T03:18:25.315Z,-3.96
2017-01-20T03:19:25.287Z,-3.96
2017-01-20T03:20:25.662Z,-3.96
2017-01-20T03:21:25.255Z,-3.86
2017-01-20T03:22:25.213Z,-3.99
2017-01-20T03:23:25.185Z,-3.9
2017-01-20T03:24:25.159Z,-3.86
2017-01-20T03:25:25.138Z,-3.86
2017-01-20T03:26:25.155Z,-3.89
2017-01-20T03:27:25.079Z,-3.86
2017-01-20T03:28:25.054Z,-3.86
2017-01-20T03:29:25.079Z,-3.86
2017-01-20T03:30:25.021Z,-3.86
2017-01-20T03:31:24.971Z,-3.87
2017-01-20T03:32:24.942Z,-3.84
2017-01-20T03:33:24.918Z,-3.86
2017-01-20T03:34:24.901Z,-3.86
2017-01-20T03:35:24.875Z,-3.86
2017-01-20T03:36:24.841Z,-3.99
2017-01-20T03:37:24.815Z,-3.96
2017-01-20T03:38:24.790Z,-3.87
2017-01-20T03:39:24.764Z,-3.94
2017-01-20T03:40:24.743Z,-3.94
2017-01-20T03:41:24.759Z,-3.91
2017-01-20T03:42:24.684Z,-3.94
2017-01-20T03:43:24.662Z,-3.99
2017-01-20T03:44:24.633Z,-3.9
2017-01-20T03:45:24.613Z,-3.93
2017-01-20T03:46:24.580Z,-3.96
2017-01-20T03:47:24.558Z,-4.07
2017-01-20T03:48:24.535Z,-3.91
2017-01-20T03:49:24.500Z,-4.01
2017-01-20T03:50:24.497Z,-3.94
2017-01-20T03:51:24.461Z,-3.93
2017-01-20T03:52:24.435Z,-4.07
2017-01-20T03:53:24.393Z,-4.11
2017-01-20T03:54:24.419Z,-4.02
2017-01-20T03:55:24.351Z,-4.08
2017-01-20T03:56:24.327Z,-4.08
2017-01-20T03:57:24.292Z,-4.11
2017-01-20T03:58:24.266Z,-4.14
2017-01-20T03:59:24.239Z,-4.14
2017-01-20T04:00:24.288Z,-4.07
2017-01-20T04:01:24.186Z,-4.11
2017-01-20T04:02:24.162Z,-4.08
2017-01-20T04:03:24.144Z,-4.08
2017-01-20T04:04:24.116Z,-4.07
2017-01-20T04:05:24.085Z,-4.09
2017-01-20T04:06:24.067Z,-4.23
2017-01-20T04:07:24.030Z,-4.22
2017-01-20T04:08:24.011Z,-4.2
2017-01-20T04:09:24.009Z,-4.22
2017-01-20T04:10:23.956Z,-4.14
2017-01-20T04:11:23.926Z,-4.22
2017-01-20T04:12:23.899Z,-4.26
2017-01-20T04:13:23.899Z,-4.18
2017-01-20T04:14:23.848Z,-4.28
2017-01-20T04:15:23.824Z,-4.22
2017-01-20T04:16:23.795Z,-4.25
2017-01-20T04:17:23.768Z,-4.23
2017-01-20T04:18:23.743Z,-4.28
2017-01-20T04:19:23.716Z,-4.29
2017-01-20T04:20:23.688Z,-4.32
2017-01-20T04:21:23.661Z,-4.25
2017-01-20T04:22:23.640Z,-4.29
2017-01-20T04:23:23.613Z,-4.26
2017-01-20T04:24:24.002Z,-4.3
2017-01-20T04:25:23.562Z,-4.38
2017-01-20T04:26:23.533Z,-4.37
2017-01-20T04:27:23.499Z,-4.32
2017-01-20T04:28:23.477Z,-4.4
2017-01-20T04:29:23.450Z,-4.4
2017-01-20T04:30:23.424Z,-4.36
2017-01-20T04:31:23.395Z,-4.4
2017-01-20T04:32:23.382Z,-4.44
2017-01-20T04:33:23.346Z,-4.4
2017-01-20T04:34:23.319Z,-4.47
2017-01-20T04:35:23.290Z,-4.57
2017-01-20T04:36:23.264Z,-4.44
2017-01-20T04:37:23.238Z,-4.46
2017-01-20T04:38:23.210Z,-4.5
2017-01-20T04:39:23.186Z,-4.54
2017-01-20T04:40:23.556Z,-4.43
2017-01-20T04:41:23.139Z,-4.54
2017-01-20T04:42:23.157Z,-4.48
2017-01-20T04:43:23.080Z,-4.51
2017-01-20T04:44:23.052Z,-4.54
2017-01-20T04:45:23.026Z,-4.61
2017-01-20T04:46:23.005Z,-4.58
2017-01-20T04:47:22.972Z,-4.66
2017-01-20T04:48:22.947Z,-4.58
2017-01-20T04:49:22.917Z,-4.54
2017-01-20T04:50:22.894Z,-4.54
2017-01-20T04:51:23.261Z,-4.57
2017-01-20T04:52:22.845Z,-4.48
2017-01-20T04:53:22.817Z,-4.57
2017-01-20T04:54:22.789Z,-4.57
2017-01-20T04:55:22.812Z,-4.57
2017-01-20T04:56:22.735Z,-4.51
2017-01-20T04:57:22.705Z,-4.57
2017-01-20T04:58:22.681Z,-4.54
2017-01-20T04:59:22.651Z,-4.55
2017-01-20T05:00:22.633Z,-4.57
2017-01-20T05:01:22.601Z,-4.59
2017-01-20T05:02:22.574Z,-4.55
2017-01-20T05:03:22.551Z,-4.55
2017-01-20T05:04:22.546Z,-4.55
2017-01-20T05:05:22.497Z,-4.55
2017-01-20T05:06:22.470Z,-4.58
2017-01-20T05:07:22.446Z,-4.5
2017-01-20T05:08:22.420Z,-4.59
2017-01-20T05:09:22.397Z,-4.59
2017-01-20T05:10:22.384Z,-4.55
2017-01-20T05:11:22.335Z,-4.54
2017-01-20T05:12:22.313Z,-4.55
2017-01-20T05:13:22.287Z,-4.57
2017-01-20T05:14:22.256Z,-4.54
2017-01-20T05:15:22.227Z,-4.46
2017-01-20T05:16:22.204Z,-4.54
2017-01-20T05:17:22.178Z,-4.54
2017-01-20T05:18:22.150Z,-4.54
2017-01-20T05:19:22.122Z,-4.44
2017-01-20T05:20:22.098Z,-4.48
2017-01-20T05:21:22.070Z,-4.48
2017-01-20T05:22:22.065Z,-4.43
2017-01-20T05:23:22.028Z,-4.55
2017-01-20T05:24:21.996Z,-4.44
2017-01-20T05:25:21.963Z,-4.47
2017-01-20T05:26:21.935Z,-4.44
2017-01-20T05:27:21.938Z,-4.51
2017-01-20T05:28:21.883Z,-4.48
2017-01-20T05:29:21.858Z,-4.43
2017-01-20T05:30:21.836Z,-4.5
2017-01-20T05:31:21.801Z,-4.54
2017-01-20T05:32:21.777Z,-4.51
2017-01-20T05:33:21.778Z,-4.48
2017-01-20T05:34:21.723Z,-4.51
2017-01-20T05:35:21.704Z,-4.46
2017-01-20T05:36:21.675Z,-4.44
2017-01-20T05:37:21.649Z,-4.43
2017-01-20T05:38:21.619Z,-4.44
2017-01-20T05:39:21.598Z,-4.55
2017-01-20T05:40:21.566Z,-4.58
2017-01-20T05:41:21.537Z,-4.57
2017-01-20T05:42:21.519Z,-4.57
2017-01-20T05:43:21.486Z,-4.57
2017-01-20T05:44:21.463Z,-4.54
2017-01-20T05:45:21.439Z,-4.55
2017-01-20T05:46:21.422Z,-4.55
2017-01-20T05:47:21.383Z,-4.62
2017-01-20T05:48:21.360Z,-4.51
2017-01-20T05:49:21.540Z,-4.55
2017-01-20T05:50:21.694Z,-4.54
2017-01-20T05:51:21.285Z,-4.51
2017-01-20T05:52:21.253Z,-4.57
2017-01-20T05:53:21.222Z,-4.65
2017-01-20T05:54:21.195Z,-4.58
2017-01-20T05:55:21.171Z,-4.57
2017-01-20T05:56:21.142Z,-4.51
2017-01-20T05:57:21.113Z,-4.62
2017-01-20T05:58:21.088Z,-4.54
2017-01-20T05:59:21.066Z,-4.64
2017-01-20T06:00:21.142Z,-4.57
2017-01-20T06:01:21.028Z,-4.69
2017-01-20T06:02:20.984Z,-4.64
2017-01-20T06:03:20.958Z,-4.62
2017-01-20T06:04:20.935Z,-4.66
2017-01-20T06:05:20.907Z,-4.61
2017-01-20T06:06:20.881Z,-4.62
2017-01-20T06:07:20.860Z,-4.61
2017-01-20T06:08:20.824Z,-4.55
2017-01-20T06:09:20.792Z,-4.62
2017-01-20T06:10:20.766Z,-4.57
2017-01-20T06:11:20.743Z,-4.59
2017-01-20T06:12:21.142Z,-4.65
2017-01-20T06:13:20.692Z,-4.69
2017-01-20T06:14:20.658Z,-4.64
2017-01-20T06:15:20.634Z,-4.65
2017-01-20T06:16:20.607Z,-4.58
2017-01-20T06:17:20.579Z,-4.62
2017-01-20T06:18:20.553Z,-4.64
2017-01-20T06:19:20.525Z,-4.65
2017-01-20T06:20:20.504Z,-4.61
2017-01-20T06:21:20.474Z,-4.61
2017-01-20T06:22:20.451Z,-4.62
2017-01-20T06:23:20.471Z,-4.73
2017-01-20T06:24:20.394Z,-4.64
2017-01-20T06:25:20.366Z,-4.68
2017-01-20T06:26:20.354Z,-4.76
2017-01-20T06:27:20.315Z,-4.73
2017-01-20T06:28:20.302Z,-4.62
2017-01-20T06:29:20.274Z,-4.59
2017-01-20T06:30:20.229Z,-4.62
2017-01-20T06:31:20.257Z,-4.62
2017-01-20T06:32:20.185Z,-4.65
2017-01-20T06:33:20.181Z,-4.59
2017-01-20T06:34:20.152Z,-4.64
2017-01-20T06:35:20.105Z,-4.65
2017-01-20T06:36:20.076Z,-4.64
2017-01-20T06:37:20.051Z,-4.62
2017-01-20T06:38:20.018Z,-4.65
2017-01-20T06:39:19.997Z,-4.65
2017-01-20T06:40:19.967Z,-4.64
2017-01-20T06:41:20.340Z,-4.69
2017-01-20T06:42:19.919Z,-4.69
2017-01-20T06:43:19.888Z,-4.68
2017-01-20T06:44:19.892Z,-4.69
2017-01-20T06:45:19.842Z,-4.64
2017-01-20T06:46:19.806Z,-4.69
2017-01-20T06:47:19.785Z,-4.75
2017-01-20T06:48:19.789Z,-4.73
2017-01-20T06:49:19.739Z,-4.69
2017-01-20T06:50:19.722Z,-4.75
2017-01-20T06:51:19.682Z,-4.68
2017-01-20T06:52:19.652Z,-4.55
2017-01-20T06:53:19.630Z,-4.61
2017-01-20T06:54:19.595Z,-4.65
2017-01-20T06:55:19.567Z,-4.65
2017-01-20T06:56:19.538Z,-4.57
2017-01-20T06:57:19.519Z,-4.64
2017-01-20T06:58:19.492Z,-4.65
2017-01-20T06:59:19.469Z,-4.68
2017-01-20T07:00:19.438Z,-4.64
2017-01-20T07:01:19.411Z,-4.61
2017-01-20T07:02:19.378Z,-4.66
2017-01-20T07:03:19.348Z,-4.61
2017-01-20T07:04:19.325Z,-4.61
2017-01-20T07:05:19.293Z,-4.64
2017-01-20T07:06:19.267Z,-4.65
2017-01-20T07:07:19.245Z,-4.65
2017-01-20T07:08:19.219Z,-4.64
2017-01-20T07:09:19.192Z,-4.69
2017-01-20T07:10:19.167Z,-4.66
2017-01-20T07:11:19.139Z,-4.64
2017-01-20T07:12:19.113Z,-4.61
2017-01-20T07:13:19.112Z,-4.64
2017-01-20T07:14:19.066Z,-4.64
2017-01-20T07:15:19.033Z,-4.62
2017-01-20T07:16:19.002Z,-4.61
2017-01-20T07:17:18.982Z,-4.64
2017-01-20T07:18:18.949Z,-4.59
2017-01-20T07:19:18.928Z,-4.64
2017-01-20T07:20:18.924Z,-4.64
2017-01-20T07:21:19.307Z,-4.61
2017-01-20T07:22:18.866Z,-4.61
2017-01-20T07:23:18.817Z,-4.62
2017-01-20T07:24:18.792Z,-4.61
2017-01-20T07:25:18.763Z,-4.54
2017-01-20T07:26:18.740Z,-4.65
2017-01-20T07:27:18.711Z,-4.66
2017-01-20T07:28:18.682Z,-4.61
2017-01-20T07:29:18.654Z,-4.66
2017-01-20T07:30:18.632Z,-4.61
2017-01-20T07:31:18.606Z,-4.61
2017-01-20T07:32:18.577Z,-4.55
2017-01-20T07:33:18.547Z,-4.55
2017-01-20T07:34:18.914Z,-4.5
2017-01-20T07:35:18.498Z,-4.5
2017-01-20T07:36:18.470Z,-4.5
2017-01-20T07:37:18.842Z,-4.47
2017-01-20T07:38:18.413Z,-4.54
2017-01-20T07:39:18.388Z,-4.37
2017-01-20T07:40:18.377Z,-4.41
2017-01-20T07:41:18.336Z,-4.36
2017-01-20T07:42:18.306Z,-4.36
2017-01-20T07:43:18.288Z,-4.29
2017-01-20T07:44:18.259Z,-4.28
2017-01-20T07:45:18.230Z,-4.25
2017-01-20T07:46:18.203Z,-4.18
2017-01-20T07:47:18.221Z,-4.25
2017-01-20T07:48:18.155Z,-4.19
2017-01-20T07:49:18.321Z,-4.12
2017-01-20T07:50:18.098Z,-4.09
2017-01-20T07:51:18.075Z,-3.91
2017-01-20T07:52:18.044Z,-4.01
2017-01-20T07:53:18.016Z,-3.99
2017-01-20T07:54:17.992Z,-3.96
2017-01-20T07:55:17.963Z,-3.96
2017-01-20T07:56:17.943Z,-3.98
2017-01-20T07:57:17.909Z,-3.9
2017-01-20T07:58:17.882Z,-3.91
2017-01-20T07:59:17.856Z,-3.83
2017-01-20T08:00:17.830Z,-3.86
2017-01-20T08:01:17.803Z,-3.8
2017-01-20T08:02:17.776Z,-3.7
2017-01-20T08:03:17.779Z,-3.68
2017-01-20T08:04:17.724Z,-3.68
2017-01-20T08:05:17.699Z,-3.62
2017-01-20T08:06:17.677Z,-3.64
2017-01-20T08:07:18.044Z,-3.67
2017-01-20T08:08:17.617Z,-3.61
2017-01-20T08:09:17.598Z,-3.65
2017-01-20T08:10:17.615Z,-3.64
2017-01-20T08:11:17.569Z,-3.57
2017-01-20T08:12:17.521Z,-3.57
2017-01-20T08:13:17.490Z,-3.53
2017-01-20T08:14:17.464Z,-3.53
2017-01-20T08:15:17.440Z,-3.44
2017-01-20T08:16:17.406Z,-3.41
2017-01-20T08:17:17.391Z,-3.36
2017-01-20T08:18:17.374Z,-3.35
2017-01-20T08:19:17.340Z,-3.39
2017-01-20T08:20:17.311Z,-3.33
2017-01-20T08:21:17.282Z,-3.31
2017-01-20T08:22:17.261Z,-3.41
2017-01-20T08:23:17.223Z,-3.31
2017-01-20T08:24:17.207Z,-3.25
2017-01-20T08:25:17.172Z,-3.23
2017-01-20T08:26:17.150Z,-3.18
2017-01-20T08:27:17.129Z,-3.13
2017-01-20T08:28:17.093Z,-3.18
2017-01-20T08:29:17.067Z,-3.1
2017-01-20T08:30:17.045Z,-3
2017-01-20T08:31:17.017Z,-2.94
2017-01-20T08:32:16.987Z,-2.93
2017-01-20T08:33:16.963Z,-2.82
2017-01-20T08:34:16.971Z,-2.82
2017-01-20T08:35:16.921Z,-2.71
2017-01-20T08:36:16.892Z,-2.66
2017-01-20T08:37:16.864Z,-2.61
2017-01-20T08:38:16.841Z,-2.5
2017-01-20T08:39:16.806Z,-2.5
2017-01-20T08:40:16.788Z,-2.47
2017-01-20T08:41:16.771Z,-2.4
2017-01-20T08:42:16.739Z,-2.51
2017-01-20T08:43:16.714Z,-2.48
2017-01-20T08:44:17.080Z,-2.33
2017-01-20T08:45:16.661Z,-2.21
2017-01-20T08:46:16.629Z,-2.28
2017-01-20T08:47:16.607Z,-2.16
2017-01-20T08:48:16.593Z,-2.02
2017-01-20T08:49:16.582Z,-1.93
2017-01-20T08:50:16.534Z,-1.98
2017-01-20T08:51:16.511Z,-1.93
2017-01-20T08:52:16.485Z,-1.84
2017-01-20T08:53:16.458Z,-1.95
2017-01-20T08:54:16.433Z,-1.82
2017-01-20T08:55:16.410Z,-1.78
2017-01-20T08:56:16.778Z,-1.74
2017-01-20T08:57:16.356Z,-1.72
2017-01-20T08:58:16.333Z,-1.59
2017-01-20T08:59:16.309Z,-1.72
2017-01-20T09:00:16.286Z,-1.54
2017-01-20T09:01:16.264Z,-1.53
2017-01-20T09:02:16.237Z,-1.48
2017-01-20T09:03:16.220Z,-1.39
2017-01-20T09:04:16.200Z,-1.38
2017-01-20T09:05:16.189Z,-1.25
2017-01-20T09:06:16.136Z,-1.3
2017-01-20T09:07:16.121Z,-1.23
2017-01-20T09:08:16.091Z,-1.13
2017-01-20T09:09:16.071Z,-1.03
2017-01-20T09:10:16.045Z,-1
2017-01-20T09:11:16.422Z,-0.91
2017-01-20T09:12:16.005Z,-0.97
2017-01-20T09:13:16.368Z,-0.86
2017-01-20T09:14:15.951Z,-0.8
2017-01-20T09:15:15.938Z,-0.84
2017-01-20T09:16:15.918Z,-0.68
2017-01-20T09:17:15.880Z,-0.66
2017-01-20T09:18:15.857Z,-0.63
2017-01-20T09:19:15.832Z,-0.6
2017-01-20T09:20:15.808Z,-0.44
2017-01-20T09:21:15.788Z,-0.44
2017-01-20T09:22:15.810Z,-0.41
2017-01-20T09:23:15.762Z,-0.33
2017-01-20T09:24:15.718Z,-0.39
2017-01-20T09:25:15.691Z,-0.26
2017-01-20T09:26:16.064Z,-0.34
2017-01-20T09:27:15.648Z,-0.3
2017-01-20T09:28:15.637Z,-0.29
2017-01-20T09:29:15.596Z,-0.27
2017-01-20T09:30:15.601Z,-0.19
2017-01-20T09:31:15.553Z,-0.19
2017-01-20T09:32:15.540Z,-0.23
2017-01-20T09:33:15.507Z,-0.24
2017-01-20T09:34:15.493Z,-0.18
2017-01-20T09:35:15.466Z,-0.12
2017-01-20T09:36:15.440Z,-0.11
2017-01-20T09:37:15.417Z,-0.16
2017-01-20T09:38:15.394Z,-0.15
2017-01-20T09:39:15.377Z,-0.13
2017-01-20T09:40:15.348Z,-0.13
2017-01-20T09:41:15.326Z,-0.04
2017-01-20T09:42:15.305Z,0
2017-01-20T09:43:15.285Z,0.02
2017-01-20T09:44:15.305Z,-0.04
2017-01-20T09:45:15.246Z,0
2017-01-20T09:46:15.213Z,0.03
2017-01-20T09:47:15.200Z,0.13
2017-01-20T09:48:15.167Z,0.03
2017-01-20T09:49:15.787Z,0.02
2017-01-20T09:50:15.123Z,0.03
2017-01-20T09:51:15.503Z,0
2017-01-20T09:52:15.081Z,0.02
2017-01-20T09:53:15.076Z,0.09
2017-01-20T09:54:15.043Z,0.16
2017-01-20T09:55:15.011Z,0.21
2017-01-20T09:56:14.996Z,0.2
2017-01-20T09:57:15.026Z,0.3
2017-01-20T09:58:14.942Z,0.28
2017-01-20T09:59:14.925Z,0.31
2017-01-20T10:00:14.925Z,0.48
2017-01-20T10:01:14.877Z,0.52
2017-01-20T10:02:14.876Z,0.67
2017-01-20T10:03:14.835Z,0.76
2017-01-20T10:04:14.809Z,0.89
2017-01-20T10:05:14.789Z,1.07
2017-01-20T10:06:15.198Z,1.32
2017-01-20T10:07:14.750Z,1.47
2017-01-20T10:08:14.723Z,1.61
2017-01-20T10:09:14.702Z,1.64
2017-01-20T10:10:14.696Z,1.65
2017-01-20T10:11:14.659Z,1.8
2017-01-20T10:12:14.646Z,1.89
2017-01-20T10:13:14.625Z,2.16
2017-01-20T10:14:14.599Z,2.53
2017-01-20T10:15:14.577Z,2.97
2017-01-20T10:16:14.555Z,3.49
2017-01-20T10:17:14.535Z,3.88
2017-01-20T10:18:14.515Z,4.24
2017-01-20T10:19:14.509Z,4.51
2017-01-20T10:20:14.478Z,4.7
2017-01-20T10:21:14.459Z,4.72
2017-01-20T10:22:14.444Z,4.84
2017-01-20T10:23:14.426Z,5.13
2017-01-20T10:24:14.407Z,5.48
2017-01-20T10:25:14.385Z,5.78
2017-01-20T10:26:14.366Z,5.83
2017-01-20T10:27:14.344Z,5.78
2017-01-20T10:28:14.326Z,5.85
2017-01-20T10:29:14.313Z,5.78
2017-01-20T10:30:14.295Z,5.83
2017-01-20T10:31:14.270Z,5.89
2017-01-20T10:32:14.258Z,5.89
2017-01-20T10:33:14.243Z,5.85
2017-01-20T10:34:14.222Z,5.68
2017-01-20T10:35:14.205Z,5.63
2017-01-20T10:36:14.189Z,5.41
2017-01-20T10:37:14.591Z,5.28
2017-01-20T10:38:14.154Z,5.3
2017-01-20T10:39:14.137Z,5.49
2017-01-20T10:40:14.118Z,5.41
2017-01-20T10:41:14.104Z,5.45
2017-01-20T10:42:14.088Z,5.55
2017-01-20T10:43:14.073Z,5.56
2017-01-20T10:44:14.057Z,5.5
2017-01-20T10:45:14.040Z,5.48
2017-01-20T10:46:14.020Z,5.5
2017-01-20T10:47:14.006Z,5.38
2017-01-20T10:48:13.991Z,5.49
2017-01-20T10:49:13.974Z,5.41
2017-01-20T10:50:13.955Z,5.43
2017-01-20T10:51:13.990Z,5.41
2017-01-20T10:52:13.925Z,5.64
2017-01-20T10:53:13.910Z,5.67
2017-01-20T10:54:14.354Z,5.68
2017-01-20T10:55:13.888Z,5.88
2017-01-20T10:56:13.867Z,6.11
2017-01-20T10:57:13.853Z,6.32
2017-01-20T10:58:13.840Z,6.53
2017-01-20T10:59:13.827Z,6.69
2017-01-20T11:00:13.806Z,6.73
2017-01-20T11:01:13.790Z,6.59
2017-01-20T11:02:14.173Z,6.58
2017-01-20T11:03:13.792Z,6.62
2017-01-20T11:04:14.173Z,6.81
2017-01-20T11:05:13.732Z,7.08
2017-01-20T11:06:13.721Z,7.02
2017-01-20T11:07:13.700Z,7.24
2017-01-20T11:08:13.689Z,7.55
2017-01-20T11:09:13.669Z,7.74
2017-01-20T11:10:13.660Z,7.77
2017-01-20T11:11:13.670Z,7.79
2017-01-20T11:12:13.635Z,7.75
2017-01-20T11:13:13.623Z,7.75
2017-01-20T11:14:13.603Z,7.85
2017-01-20T11:15:13.618Z,7.96
2017-01-20T11:16:13.577Z,8.14
2017-01-20T11:17:13.573Z,8.37
2017-01-20T11:18:13.548Z,8.51
2017-01-20T11:19:13.540Z,8.58
2017-01-20T11:20:13.522Z,8.62
2017-01-20T11:21:13.936Z,8.6
2017-01-20T11:22:13.498Z,8.44
2017-01-20T11:23:13.491Z,8.21
2017-01-20T11:24:13.477Z,8.02
2017-01-20T11:25:13.474Z,7.89
2017-01-20T11:26:13.517Z,7.89
2017-01-20T11:27:13.438Z,7.71
2017-01-20T11:28:13.427Z,7.6
2017-01-20T11:29:13.418Z,7.55
2017-01-20T11:30:13.397Z,7.42
2017-01-20T11:31:13.415Z,7.32
2017-01-20T11:32:13.375Z,7.15
2017-01-20T11:33:13.365Z,7.17
2017-01-20T11:34:13.429Z,7.29
2017-01-20T11:35:13.350Z,7.35
2017-01-20T11:36:13.328Z,7.42
2017-01-20T11:37:13.318Z,7.47
2017-01-20T11:38:13.299Z,7.55
2017-01-20T11:39:13.293Z,7.69
2017-01-20T11:40:13.279Z,7.75
2017-01-20T11:41:13.319Z,7.81
2017-01-20T11:42:13.251Z,7.93
2017-01-20T11:43:13.245Z,8
2017-01-20T11:44:13.231Z,8.1
2017-01-20T11:45:13.623Z,7.85
2017-01-20T11:46:13.211Z,7.69
2017-01-20T11:47:13.198Z,7.56
2017-01-20T11:48:13.179Z,7.31
2017-01-20T11:49:13.384Z,7.16
2017-01-20T11:50:13.157Z,6.99
2017-01-20T11:51:13.142Z,6.83
2017-01-20T11:52:13.133Z,6.76
2017-01-20T11:53:13.166Z,6.51
2017-01-20T11:54:13.102Z,6.36
2017-01-20T11:55:13.096Z,6.22
2017-01-20T11:56:13.139Z,6.03
2017-01-20T11:57:13.060Z,5.98
2017-01-20T11:58:13.047Z,5.96
2017-01-20T11:59:13.034Z,5.83
2017-01-20T12:00:13.039Z,5.67
2017-01-20T12:01:13.009Z,5.57
2017-01-20T12:02:12.997Z,5.59
2017-01-20T12:03:12.978Z,5.59
2017-01-20T12:04:12.960Z,5.43
2017-01-20T12:05:12.987Z,5.48
2017-01-20T12:06:12.937Z,5.45
2017-01-20T12:07:12.915Z,5.45
2017-01-20T12:08:12.977Z,5.45
2017-01-20T12:09:12.890Z,5.48
2017-01-20T12:10:12.867Z,5.4
2017-01-20T12:11:13.248Z,5.41
2017-01-20T12:12:13.245Z,5.45
2017-01-20T12:13:12.821Z,5.45
2017-01-20T12:14:12.814Z,5.45
2017-01-20T12:15:12.791Z,5.45
2017-01-20T12:16:12.777Z,5.48
2017-01-20T12:17:12.788Z,5.57
2017-01-20T12:18:12.744Z,5.71
2017-01-20T12:19:12.731Z,5.86
2017-01-20T12:20:12.719Z,6.1
2017-01-20T12:21:12.697Z,6.3
2017-01-20T12:22:13.081Z,6.46
2017-01-20T12:23:12.674Z,6.68
2017-01-20T12:24:12.705Z,6.84
2017-01-20T12:25:12.649Z,7.02
2017-01-20T12:26:12.627Z,7.29
2017-01-20T12:27:12.614Z,7.58
2017-01-20T12:28:12.606Z,7.82
2017-01-20T12:29:12.585Z,7.99
2017-01-20T12:30:12.576Z,8.14
2017-01-20T12:31:12.559Z,8.21
2017-01-20T12:32:12.553Z,8.26
2017-01-20T12:33:12.539Z,8.32
2017-01-20T12:34:12.529Z,8.3
2017-01-20T12:35:12.515Z,8.45
2017-01-20T12:36:12.500Z,8.6
2017-01-20T12:37:12.504Z,8.88
2017-01-20T12:38:12.890Z,8.96
2017-01-20T12:39:12.474Z,9.21
2017-01-20T12:40:12.863Z,9.5
2017-01-20T12:41:12.877Z,9.45
2017-01-20T12:42:12.458Z,9.43
2017-01-20T12:43:12.425Z,9.39
2017-01-20T12:44:12.414Z,9.67
2017-01-20T12:45:12.408Z,9.82
2017-01-20T12:46:12.401Z,10.01
2017-01-20T12:47:12.392Z,10.12
2017-01-20T12:48:12.371Z,10.19
2017-01-20T12:49:12.767Z,10.3
2017-01-20T12:50:12.355Z,10.22
2017-01-20T12:51:12.344Z,10.25
2017-01-20T12:52:12.330Z,10.26
2017-01-20T12:53:12.326Z,10.21
2017-01-20T12:54:12.318Z,10.21
2017-01-20T12:55:12.303Z,10.37
2017-01-20T12:56:12.296Z,10.76
2017-01-20T12:57:12.284Z,10.98
2017-01-20T12:58:12.285Z,11.31
2017-01-20T12:59:12.674Z,11.61
2017-01-20T13:00:12.262Z,11.8
2017-01-20T13:01:12.252Z,11.9